Rubén Cano

Recruteur - Gijón
6 Déc 2026
Dimanche
Processus

Personnalité

Adaptabilité (14) Ambition (16) Controverse (11) Loyauté (11) Pression (6) Professionnalisme (17) Sportivité (11) Tempérament (9)

Profil

Style d'entraînement Démocratique
Diplôme Continental A
Détermination 6
Gestion des joueurs 5
Motivation 5
Discipline 12
Satisfaction professionnelle
50%
Fatigue
0%
Rôle Recruteur
Salaire 51.7K p/s
Contrat 14.03.2027

Performance

Comportement Normal
Efficacité de l'entraînement
20%
Développement des joueurs
30%
Prévention des blessures
55%
Mise en place tactique
30%

Événements récents

A participé à une réunion de recrutement maintenant
A recommandé une cible de transfert maintenant
A recommandé une cible de transfert maintenant
A évalué un joueur maintenant
A évalué un joueur 7j
A observé un match 7j
A évalué un joueur 7j
A évalué un joueur 7j

Suivi en cours

134
Joueur Club Statut Capacité Confiance Observé Dernière observation Dernier vote
Lucas Varaldo Morelia Actif 123 / 114 40% 2 04.12.2026 -
Kasper Høgh Bloemfontein Celtic Actif 134 / 121 40% 2 04.12.2026 -
Luciano Gondou CSKA Moscow Actif 130 / 128 40% 1 04.12.2026 -
Wilson Isidor Sunderland Actif 132 / 128 40% 2 01.12.2026 -
Tani Oluwaseyi Villarreal Actif 148 / 134 40% 1 01.12.2026 -
Matías Contrera Hrvatski Dragovoljac Actif 89 / 91 40% 1 01.12.2026 -
Ozziel Herrera Tigres Actif 128 / 122 40% 5 29.11.2026 -
Chemsdine Talbi Sunderland Actif 137 / 147 40% 1 29.11.2026 -
Justo Giani Umraniyespor Actif 130 / 112 40% 1 29.11.2026 -
Brian Rodríguez Club America Actif 128 / 132 40% 3 28.11.2026 -
Diego Lainez Tigres Actif 127 / 127 40% 4 28.11.2026 -
Alexander Díaz Deportivo Riestra Actif 124 / 113 40% 1 28.11.2026 -
Tyrese Campbell Sheffield United Actif 133 / 122 40% 3 27.11.2026 -
Camilo Durán Bloemfontein Celtic Actif 116 / 113 40% 1 27.11.2026 -
Gastón Benedetti Estudiantes Actif 125 / 130 40% 1 27.11.2026 -
Emiliano Vidal Chamois Niortais Actif 117 / 120 40% 2 26.11.2026 -
Ricardo Echeverría Santos Laguna Actif 108 / 118 40% 1 26.11.2026 -
Luis Rodriguez Cortulua Actif 118 / 128 40% 4 25.11.2026 -
Jonathan Dubasin Osasuna Actif 141 / 141 40% 4 25.11.2026 -
Marcelo Flores Tigres Actif 115 / 126 40% 3 25.11.2026 -
Tyler Adams Bournemouth Actif 149 / 153 40% 1 22.11.2026 -
Diego López Valencia Actif 140 / 140 40% 1 22.11.2026 -
Duk Atlas Actif 115 / 113 40% 9 21.11.2026 -
Brian Gutiérrez Guadalajara Actif 133 / 124 40% 1 21.11.2026 -
Roberto de la Rosa Monterrey Actif 115 / 115 40% 1 21.11.2026 -
Bruno Larregui Juventud Actif 111 / 127 40% 1 21.11.2026 -
Adalberto Carrasquilla Pumas UNAM Actif 130 / 131 40% 1 19.11.2026 -
Jesús Garza Tigres Actif 119 / 127 40% 1 19.11.2026 -
Evanilson Bournemouth Actif 155 / 155 40% 2 18.11.2026 -
Agustín Módica Gimnasia y Esgrima Actif 118 / 123 40% 2 18.11.2026 -
Everton Bala Levski Actif 133 / 117 40% 1 18.11.2026 -
Karim Adeyemi Barcelona Actif 150 / 157 40% 2 16.11.2026 -
Abel Ruiz Girona Actif 144 / 135 40% 1 15.11.2026 -
Carlos Álvarez Club America Actif 145 / 136 40% 4 14.11.2026 -
Yoshan Valois Lanús Actif 110 / 126 40% 2 13.11.2026 -
Germán Valera Elche Actif 133 / 129 40% 1 13.11.2026 -
Juan Peñaloza Alianza Petrolera Actif 110 / 114 40% 2 12.11.2026 -
Laurent De Ketelaere Utrecht Actif 146 / 153 40% 1 12.11.2026 -
Iván Romero Levante Actif 135 / 136 40% 1 12.11.2026 -
Jon Karrikaburu Burgos Actif 133 / 129 40% 3 11.11.2026 -
Sota Kitano Red Bull Salzburg Actif 122 / 117 40% 1 11.11.2026 -
Juan Bisanz Huracán Actif 123 / 117 40% 3 09.11.2026 -
Emi Rodriguez Leon Actif 114 / 123 40% 2 09.11.2026 -
Ruyery Blanco Alianza Petrolera Actif 103 / 103 40% 2 09.11.2026 -
Ricardo Pepi Mallorca Actif 146 / 147 40% 1 09.11.2026 -
Christantus Uche Getafe Actif 136 / 136 40% 1 09.11.2026 -
César Araújo Tigres Actif 123 / 129 40% 1 09.11.2026 -
Seedy Jatta Sturm Graz Actif 123 / 118 40% 1 07.11.2026 -
Juan Hurtado La Equidad Actif 119 / 118 40% 1 07.11.2026 -
Facundo Batista Penarol Actif 114 / 124 40% 1 06.11.2026 -
Alejo Cruz Juventud Actif 118 / 126 40% 1 06.11.2026 -
Jefry Zapata Once Caldas Actif 111 / 126 40% 6 05.11.2026 -
Assane Diao Como Actif 143 / 145 40% 1 05.11.2026 -
Enzo Avaro Mitre Actif 114 / 102 40% 1 04.11.2026 -
Ezequiel Bullaude Santos Laguna Actif 125 / 118 40% 2 03.11.2026 -
Santiago Montiel Independiente Actif 132 / 121 40% 4 03.11.2026 -
Rasmus Højlund Espanyol Actif 148 / 145 40% 1 03.11.2026 -
Sébastien Fabre Chamois Niortais Actif 157 / 161 40% 2 02.11.2026 -
Ivo Mammini Beitar Jerusalem Actif 106 / 126 40% 1 01.11.2026 -
Andrés Martín Racing Santander Actif 132 / 132 40% 2 31.10.2026 -
Jáder Valencia Deportes Tolima Actif 111 / 108 40% 2 29.10.2026 -
Thiago Calone All Boys Actif 113 / 120 40% 2 29.10.2026 -
Alexis Cuello San Lorenzo Actif 123 / 131 40% 1 29.10.2026 -
Erik Lira Cruz Azul Actif 135 / 127 40% 3 28.10.2026 -
Jaminton Campaz Rosario Central Actif 126 / 120 40% 3 28.10.2026 -
Erick Sánchez Club America Actif 142 / 137 40% 3 27.10.2026 -
Joaquín Gho Argentinos Juniors Actif 126 / 120 40% 1 27.10.2026 -
Julián Palacios Unión de Santa Fe Actif 114 / 124 40% 2 26.10.2026 -
Lautaro Guzmán Arsenal Actif 128 / 114 40% 1 25.10.2026 -
Santiago Murillo La Equidad Actif 132 / 134 40% 1 24.10.2026 -
Misael Sosa Godoy Cruz Actif 118 / 112 40% 2 23.10.2026 -
Carlos Forbs Club Brugge Actif 138 / 138 40% 1 22.10.2026 -
Tomás Silva Platense Actif 122 / 121 40% 2 21.10.2026 -
Gonzalo Ríos Independiente Rivadavia Actif 116 / 121 40% 1 21.10.2026 -
Matías Fernández Independiente Rivadavia Actif 112 / 126 40% 3 17.10.2026 -
Helinho Toluca Actif 128 / 131 40% 1 17.10.2026 -
Ramiro Ruiz Rodríguez Atlético Tucumán Actif 125 / 122 40% 3 16.10.2026 -
Mariano Bracamonte Deportivo Riestra Actif 123 / 112 40% 1 16.10.2026 -
Paulo Victor Queretaro Actif 110 / 117 40% 1 16.10.2026 -
Martín Ojeda Orlando City Actif 137 / 131 40% 1 15.10.2026 -
Jefferson Duque Cortulua Actif 133 / 120 40% 1 14.10.2026 -
Juan Pablo Domínguez Leon Actif 130 / 132 40% 1 13.10.2026 -
Franco Zapiola Platense Actif 121 / 131 40% 1 12.10.2026 -
Pedro Vite Pumas UNAM Actif 129 / 125 40% 1 12.10.2026 -
Junior Hernández Deportes Tolima Actif 121 / 118 40% 3 11.10.2026 -
Luca Martínez Dupuy Godoy Cruz Actif 129 / 125 40% 1 10.10.2026 -
Mason Mount Manchester United Actif 154 / 149 40% 1 10.10.2026 -
Alex Luna Instituto Actif 136 / 135 40% 2 08.10.2026 -
Carlos Jimenez Veracruz Actif 114 / 116 40% 1 08.10.2026 -
Fidel Ambríz Monterrey Actif 130 / 127 40% 1 07.10.2026 -
Rodrigo López Pumas UNAM Actif 115 / 121 40% 1 07.10.2026 -
Mateo Garavito Deportivo Pasto Actif 118 / 121 40% 1 04.10.2026 -
Xavier Biscayzacú Defensor Sporting Actif 120 / 120 40% 2 02.10.2026 -
Gonzalo Fulham Actif 148 / 151 40% 1 02.10.2026 -
Mason Greenwood Fenerbahce Actif 157 / 159 40% 1 02.10.2026 -
Lautaro Gordillo Colegiales Actif 102 / 103 40% 2 29.09.2026 -
Juan Rocca Gimnasia y Tiro Actif 99 / 102 40% 2 29.09.2026 -
Agustín Gallo Tristán Suárez Actif 112 / 118 40% 2 28.09.2026 -
Chupete Málaga Actif 132 / 134 40% 1 28.09.2026 -
Matías Sosa Arsenal Actif 106 / 111 40% 1 28.09.2026 -
Jonás Luna Wanderers Actif 115 / 121 40% 1 24.09.2026 -
Fabricio Rojas Gimnasia y Tiro Actif 102 / 121 40% 1 24.09.2026 -
Tomás Chancalay Minnesota United FC Actif 127 / 131 40% 1 24.09.2026 -
Iker Benito Queretaro Actif 123 / 119 40% 1 24.09.2026 -
Mohamed-Ali Cho Hull City Actif 129 / 139 40% 1 22.09.2026 -
Emerson Batalla Atletico Bucaramanga Actif 130 / 122 40% 1 20.09.2026 -
Lucas Souto Defensa y Justicia Actif 117 / 126 40% 1 20.09.2026 -
Richard Ledezma Guadalajara Actif 136 / 134 40% 1 19.09.2026 -
Franco Ibarra Rosario Central Actif 133 / 138 40% 1 19.09.2026 -
Alejandro Pozo Standard Liege Actif 119 / 122 40% 1 18.09.2026 -
Matías Pellegrini Vélez Actif 119 / 120 40% 1 18.09.2026 -
Alejo Dramisino Atlanta Actif 123 / 112 40% 1 18.09.2026 -
Juan Sierra La Equidad Actif 128 / 138 40% 1 17.09.2026 -
Sebastián Moreno Patriotas Actif 100 / 98 40% 1 17.09.2026 -
Franco Fagúndez Estudiantes Actif 117 / 126 40% 1 17.09.2026 -
Wessam Abou Ali Columbus Crew Actif 133 / 130 40% 1 15.09.2026 -
Fabrizio Sartori Independiente Rivadavia Actif 111 / 123 40% 1 15.09.2026 -
Eduardo Lozano Veracruz Actif 142 / 142 40% 1 14.09.2026 -
Sergi Cardona KAA Gent Actif 149 / 151 40% 1 13.09.2026 -
Bautista Tomatis Racing Actif 98 / 105 40% 1 10.09.2026 -
Talles Magno New York City Actif 126 / 124 40% 1 10.09.2026 -
Juan Cruz de los Santos Nacional Actif 119 / 133 40% 1 09.09.2026 -
Enzo Cabrera Danubio Actif 101 / 115 40% 1 08.09.2026 -
Carlos Gugenheim Almirante Brown Actif 106 / 104 40% 1 08.09.2026 -
Thiago Acosta River Plate Actif 112 / 107 40% 1 08.09.2026 -
Yacouba Meïté Plaza Colonia Actif 88 / 99 40% 1 08.09.2026 -
Victor Hernandez Cortulua Actif 117 / 119 40% 1 08.09.2026 -
Federico Acosta Miramar Misiones Actif 97 / 97 40% 1 31.08.2026 -
Jérémy Jacquet Liverpool Actif 140 / 136 40% 1 31.08.2026 -
James Bacca La Equidad Actif 129 / 125 40% 1 31.08.2026 -
Sergi Guardiola Córdoba Actif 120 / 116 76% 1 24.08.2026 Approuver
Thalys Almería Actif 117 / 127 76% 1 17.08.2026 Approuver
Jorrel Hato Chelsea Actif 139 / 147 40% 1 01.08.2026 -
Catriel Cabellos Sporting Cristal Actif 111 / 124 40% 1 01.08.2026 -